createdAt,value
2018-05-15T00:00:05.512Z,14.30
2018-05-15T00:01:05.465Z,14.30
2018-05-15T00:02:06.688Z,14.30
2018-05-15T00:03:10.366Z,14.30
2018-05-15T00:04:05.663Z,14.30
2018-05-15T00:05:07.753Z,14.30
2018-05-15T00:06:08.041Z,14.30
2018-05-15T00:07:05.313Z,14.30
2018-05-15T00:08:08.287Z,14.20
2018-05-15T00:09:10.932Z,14.20
2018-05-15T00:10:05.756Z,14.20
2018-05-15T00:11:06.413Z,14.20
2018-05-15T00:12:08.967Z,14.20
2018-05-15T00:13:10.712Z,14.20
2018-05-15T00:14:05.242Z,14.20
2018-05-15T00:15:06.216Z,14.20
2018-05-15T00:16:10.990Z,14.10
2018-05-15T00:17:08.795Z,14.10
2018-05-15T00:18:05.537Z,14.10
2018-05-15T00:19:10.339Z,14.00
2018-05-15T00:20:07.670Z,14.10
2018-05-15T00:21:05.751Z,14.00
2018-05-15T00:22:05.835Z,14.00
2018-05-15T00:23:05.246Z,14.00
2018-05-15T00:24:05.154Z,14.00
2018-05-15T00:25:05.311Z,14.00
2018-05-15T00:26:10.632Z,13.90
2018-05-15T00:27:05.563Z,13.90
2018-05-15T00:28:08.279Z,13.90
2018-05-15T00:29:06.055Z,13.90
2018-05-15T00:30:08.397Z,13.90
2018-05-15T00:31:06.042Z,13.80
2018-05-15T00:32:06.087Z,13.80
2018-05-15T00:33:10.795Z,13.80
2018-05-15T00:34:06.248Z,13.80
2018-05-15T00:35:06.062Z,13.70
2018-05-15T00:36:09.318Z,13.70
2018-05-15T00:37:05.953Z,13.70
2018-05-15T00:38:10.814Z,13.60
2018-05-15T00:39:05.524Z,13.70
2018-05-15T00:40:06.359Z,13.70
2018-05-15T00:41:05.964Z,13.60
2018-05-15T00:42:06.132Z,13.60
2018-05-15T00:43:05.376Z,13.60
2018-05-15T00:44:05.872Z,13.60
2018-05-15T00:45:05.924Z,13.60
2018-05-15T00:46:08.688Z,13.50
2018-05-15T00:47:05.483Z,13.60
2018-05-15T00:48:05.933Z,13.50
2018-05-15T00:49:05.765Z,13.50
2018-05-15T00:50:10.644Z,13.50
2018-05-15T00:51:08.620Z,13.50
2018-05-15T00:52:07.853Z,13.50
2018-05-15T00:53:05.596Z,13.40
2018-05-15T00:54:05.506Z,13.40
2018-05-15T00:55:10.185Z,13.40
2018-05-15T00:56:10.305Z,13.40
2018-05-15T00:57:05.930Z,13.40
2018-05-15T00:58:05.177Z,13.40
2018-05-15T00:59:05.630Z,13.40
2018-05-15T01:00:05.389Z,13.40
2018-05-15T01:01:11.501Z,13.30
2018-05-15T01:02:05.219Z,13.30
2018-05-15T01:03:11.058Z,13.30
2018-05-15T01:04:11.236Z,13.30
2018-05-15T01:05:06.774Z,13.30
2018-05-15T01:06:08.202Z,13.30
2018-05-15T01:07:05.972Z,13.30
2018-05-15T01:08:06.086Z,13.30
2018-05-15T01:09:05.989Z,13.30
2018-05-15T01:10:08.471Z,13.20
2018-05-15T01:11:09.341Z,13.20
2018-05-15T01:12:11.039Z,13.20
2018-05-15T01:13:05.568Z,13.20
2018-05-15T01:14:06.642Z,13.20
2018-05-15T01:15:10.576Z,13.20
2018-05-15T01:16:05.632Z,13.20
2018-05-15T01:17:08.460Z,13.10
2018-05-15T01:18:05.976Z,13.10
2018-05-15T01:19:09.329Z,13.10
2018-05-15T01:20:06.391Z,13.10
2018-05-15T01:21:08.925Z,13.10
2018-05-15T01:22:05.396Z,13.10
2018-05-15T01:23:09.470Z,13.10
2018-05-15T01:24:06.203Z,13.10
2018-05-15T01:25:10.366Z,13.00
2018-05-15T01:26:06.044Z,13.00
2018-05-15T01:27:06.031Z,13.00
2018-05-15T01:28:09.474Z,13.00
2018-05-15T01:29:06.040Z,13.00
2018-05-15T01:30:11.021Z,13.00
2018-05-15T01:31:10.021Z,12.90
2018-05-15T01:32:08.254Z,12.90
2018-05-15T01:33:08.570Z,12.90
2018-05-15T01:34:06.235Z,12.80
2018-05-15T01:35:06.080Z,12.90
2018-05-15T01:36:05.933Z,12.80
2018-05-15T01:37:08.986Z,12.80
2018-05-15T01:38:06.076Z,12.80
2018-05-15T01:39:10.981Z,12.70
2018-05-15T01:40:05.678Z,12.80
2018-05-15T01:41:05.629Z,12.70
2018-05-15T01:42:05.463Z,12.70
2018-05-15T01:43:05.382Z,12.70
2018-05-15T01:44:05.676Z,12.70
2018-05-15T01:45:05.967Z,12.70
2018-05-15T01:46:05.193Z,12.70
2018-05-15T01:47:06.040Z,12.60
2018-05-15T01:48:05.627Z,12.60
2018-05-15T01:49:08.737Z,12.60
2018-05-15T01:50:05.304Z,12.60
2018-05-15T01:51:11.133Z,12.50
2018-05-15T01:52:05.679Z,12.60
2018-05-15T01:53:10.511Z,12.60
2018-05-15T01:54:11.187Z,12.50
2018-05-15T01:55:05.925Z,12.50
2018-05-15T01:56:08.536Z,12.50
2018-05-15T01:57:08.374Z,12.50
2018-05-15T01:58:08.458Z,12.50
2018-05-15T01:59:11.099Z,12.50
2018-05-15T02:00:08.069Z,12.50
2018-05-15T02:01:05.653Z,12.50
2018-05-15T02:02:09.138Z,12.50
2018-05-15T02:03:05.954Z,12.50
2018-05-15T02:04:08.024Z,12.40
2018-05-15T02:05:06.090Z,12.40
2018-05-15T02:06:05.901Z,12.40
2018-05-15T02:07:05.883Z,12.40
2018-05-15T02:08:05.691Z,12.40
2018-05-15T02:09:05.677Z,12.40
2018-05-15T02:10:05.677Z,12.30
2018-05-15T02:11:05.558Z,12.40
2018-05-15T02:12:06.105Z,12.30
2018-05-15T02:13:13.244Z,12.30
2018-05-15T02:14:05.799Z,12.30
2018-05-15T02:15:10.894Z,12.20
2018-05-15T02:16:05.590Z,12.20
2018-05-15T02:17:08.107Z,12.20
2018-05-15T02:18:05.389Z,12.20
2018-05-15T02:19:08.452Z,12.20
2018-05-15T02:20:06.271Z,12.20
2018-05-15T02:21:05.666Z,12.10
2018-05-15T02:22:05.829Z,12.10
2018-05-15T02:23:13.504Z,12.10
2018-05-15T02:24:06.028Z,12.10
2018-05-15T02:25:09.327Z,12.10
2018-05-15T02:26:08.552Z,12.00
2018-05-15T02:27:06.228Z,12.00
2018-05-15T02:28:08.806Z,12.00
2018-05-15T02:29:06.501Z,12.00
2018-05-15T02:30:05.652Z,12.10
2018-05-15T02:31:05.764Z,12.00
2018-05-15T02:32:05.952Z,12.00
2018-05-15T02:33:06.211Z,12.00
2018-05-15T02:34:05.554Z,12.00
2018-05-15T02:35:06.424Z,12.00
2018-05-15T02:36:08.539Z,12.00
2018-05-15T02:37:06.378Z,11.90
2018-05-15T02:38:10.378Z,11.90
2018-05-15T02:39:06.063Z,11.90
2018-05-15T02:40:08.979Z,11.90
2018-05-15T02:41:05.244Z,11.90
2018-05-15T02:42:09.177Z,11.90
2018-05-15T02:43:06.342Z,11.90
2018-05-15T02:44:05.826Z,11.90
2018-05-15T02:45:05.729Z,11.90
2018-05-15T02:46:08.117Z,11.80
2018-05-15T02:47:10.854Z,11.80
2018-05-15T02:48:10.495Z,11.80
2018-05-15T02:49:10.982Z,11.70
2018-05-15T02:50:05.510Z,11.80
2018-05-15T02:51:11.230Z,11.70
2018-05-15T02:52:08.446Z,11.70
2018-05-15T02:53:08.486Z,11.70
2018-05-15T02:54:08.746Z,11.70
2018-05-15T02:55:05.356Z,11.60
2018-05-15T02:56:10.295Z,11.60
2018-05-15T02:57:06.055Z,11.60
2018-05-15T02:58:08.271Z,11.60
2018-05-15T02:59:05.990Z,11.60
2018-05-15T03:00:08.151Z,11.60
2018-05-15T03:01:05.876Z,11.60
2018-05-15T03:02:06.122Z,11.60
2018-05-15T03:03:09.525Z,11.60
2018-05-15T03:04:13.822Z,11.60
2018-05-15T03:05:05.517Z,11.60
2018-05-15T03:06:11.309Z,11.60
2018-05-15T03:07:07.004Z,11.60
2018-05-15T03:08:09.807Z,11.60
2018-05-15T03:09:05.873Z,11.50
2018-05-15T03:10:05.841Z,11.60
2018-05-15T03:11:08.393Z,11.50
2018-05-15T03:12:08.236Z,11.50
2018-05-15T03:13:08.266Z,11.50
2018-05-15T03:14:06.663Z,11.50
2018-05-15T03:15:10.327Z,11.50
2018-05-15T03:16:08.531Z,11.50
2018-05-15T03:17:09.492Z,11.50
2018-05-15T03:18:05.300Z,11.40
2018-05-15T03:19:12.971Z,11.40
2018-05-15T03:20:09.869Z,11.40
2018-05-15T03:21:05.434Z,11.50
2018-05-15T03:22:06.142Z,11.40
2018-05-15T03:23:06.749Z,11.40
2018-05-15T03:24:08.253Z,11.40
2018-05-15T03:25:05.933Z,11.40
2018-05-15T03:26:10.664Z,11.40
2018-05-15T03:27:05.988Z,11.40
2018-05-15T03:28:08.458Z,11.40
2018-05-15T03:29:08.000Z,11.40
2018-05-15T03:30:05.637Z,11.40
2018-05-15T03:31:05.498Z,11.40
2018-05-15T03:32:05.313Z,11.40
2018-05-15T03:33:08.329Z,11.40
2018-05-15T03:34:08.328Z,11.40
2018-05-15T03:35:09.265Z,11.40
2018-05-15T03:36:05.979Z,11.40
2018-05-15T03:37:05.928Z,11.30
2018-05-15T03:38:08.468Z,11.40
2018-05-15T03:39:06.086Z,11.30
2018-05-15T03:40:06.211Z,11.30
2018-05-15T03:41:09.459Z,11.30
2018-05-15T03:42:09.271Z,11.30
2018-05-15T03:43:05.990Z,11.30
2018-05-15T03:44:05.504Z,11.40
2018-05-15T03:45:08.011Z,11.30
2018-05-15T03:46:05.577Z,11.30
2018-05-15T03:47:11.346Z,11.30
2018-05-15T03:48:08.562Z,11.30
2018-05-15T03:49:05.690Z,11.30
2018-05-15T03:50:05.415Z,11.30
2018-05-15T03:51:08.647Z,11.30
2018-05-15T03:52:08.819Z,11.30
2018-05-15T03:53:05.557Z,11.30
2018-05-15T03:54:08.396Z,11.30
2018-05-15T03:55:09.849Z,11.30
2018-05-15T03:56:08.167Z,11.30
2018-05-15T03:57:08.309Z,11.30
2018-05-15T03:58:05.875Z,11.30
2018-05-15T03:59:06.081Z,11.40
2018-05-15T04:00:08.268Z,11.40
2018-05-15T04:01:05.877Z,11.40
2018-05-15T04:02:10.591Z,11.40
2018-05-15T04:03:06.926Z,11.40
2018-05-15T04:04:10.712Z,11.40
2018-05-15T04:05:06.300Z,11.40
2018-05-15T04:06:10.325Z,11.50
2018-05-15T04:07:05.642Z,11.50
2018-05-15T04:08:10.411Z,11.50
2018-05-15T04:09:06.215Z,11.50
2018-05-15T04:10:05.897Z,11.60
2018-05-15T04:11:05.975Z,11.60
2018-05-15T04:12:05.834Z,11.70
2018-05-15T04:13:05.172Z,11.80
2018-05-15T04:14:05.317Z,11.90
2018-05-15T04:15:05.172Z,12.00
2018-05-15T04:16:06.205Z,12.10
2018-05-15T04:17:06.526Z,12.20
2018-05-15T04:18:05.251Z,12.30
2018-05-15T04:19:05.893Z,12.50
2018-05-15T04:20:05.568Z,12.60
2018-05-15T04:21:07.970Z,12.80
2018-05-15T04:22:09.175Z,13.00
2018-05-15T04:23:06.277Z,13.00
2018-05-15T04:24:07.940Z,13.20
2018-05-15T04:25:12.195Z,13.30
2018-05-15T04:26:06.677Z,13.40
2018-05-15T04:27:08.061Z,13.60
2018-05-15T04:28:05.980Z,13.60
2018-05-15T04:29:10.895Z,13.80
2018-05-15T04:30:05.853Z,13.80
2018-05-15T04:31:05.743Z,13.90
2018-05-15T04:32:06.090Z,14.00
2018-05-15T04:33:05.284Z,14.20
2018-05-15T04:34:08.756Z,14.40
2018-05-15T04:35:10.425Z,14.50
2018-05-15T04:36:05.631Z,14.50
2018-05-15T04:37:10.265Z,14.60
2018-05-15T04:38:06.024Z,14.70
2018-05-15T04:39:05.984Z,14.90
2018-05-15T04:40:06.058Z,15.00
2018-05-15T04:41:06.052Z,15.10
2018-05-15T04:42:08.554Z,15.20
2018-05-15T04:43:06.015Z,15.30
2018-05-15T04:44:13.745Z,15.30
2018-05-15T04:45:05.304Z,15.30
2018-05-15T04:46:06.232Z,15.40
2018-05-15T04:47:08.766Z,15.40
2018-05-15T04:48:13.475Z,15.50
2018-05-15T04:49:05.905Z,15.50
2018-05-15T04:50:06.186Z,15.50
2018-05-15T04:51:05.879Z,15.60
2018-05-15T04:52:08.251Z,15.60
2018-05-15T04:53:06.175Z,15.60
2018-05-15T04:54:05.655Z,15.70
2018-05-15T04:55:05.434Z,15.70
2018-05-15T04:56:10.799Z,15.60
2018-05-15T04:57:05.457Z,15.70
2018-05-15T04:58:07.986Z,15.70
2018-05-15T04:59:09.067Z,15.70
2018-05-15T05:00:05.930Z,15.70
2018-05-15T05:01:08.146Z,15.70
2018-05-15T05:02:08.432Z,15.60
2018-05-15T05:03:09.335Z,15.60
2018-05-15T05:04:08.343Z,15.60
2018-05-15T05:05:08.061Z,15.50
2018-05-15T05:06:05.815Z,15.50
2018-05-15T05:07:05.736Z,15.50
2018-05-15T05:08:05.676Z,15.50
2018-05-15T05:09:08.357Z,15.50
2018-05-15T05:10:06.063Z,15.50
2018-05-15T05:11:09.964Z,15.60
2018-05-15T05:12:05.613Z,15.60
2018-05-15T05:13:08.816Z,15.50
2018-05-15T05:14:10.473Z,15.50
2018-05-15T05:15:05.896Z,15.50
2018-05-15T05:16:10.947Z,15.50
2018-05-15T05:17:10.617Z,15.50
2018-05-15T05:18:05.850Z,15.40
2018-05-15T05:19:08.034Z,15.50
2018-05-15T05:20:08.875Z,15.50
2018-05-15T05:21:05.956Z,15.50
2018-05-15T05:22:06.684Z,15.50
2018-05-15T05:23:08.068Z,15.60
2018-05-15T05:24:05.642Z,15.50
2018-05-15T05:25:05.502Z,15.60
2018-05-15T05:26:06.139Z,15.50
2018-05-15T05:27:05.942Z,15.50
2018-05-15T05:28:05.751Z,15.50
2018-05-15T05:29:05.865Z,15.50
2018-05-15T05:30:05.850Z,15.60
2018-05-15T05:31:08.075Z,15.70
2018-05-15T05:32:05.635Z,15.70
2018-05-15T05:33:08.447Z,15.90
2018-05-15T05:34:06.100Z,15.90
2018-05-15T05:35:06.004Z,16.00
2018-05-15T05:36:08.117Z,16.10
2018-05-15T05:37:10.808Z,16.10
2018-05-15T05:38:06.099Z,16.20
2018-05-15T05:39:13.523Z,16.30
2018-05-15T05:40:06.450Z,16.40
2018-05-15T05:41:07.817Z,16.40
2018-05-15T05:42:05.665Z,16.40
2018-05-15T05:43:05.515Z,16.50
2018-05-15T05:44:09.087Z,16.60
2018-05-15T05:45:06.826Z,16.50
2018-05-15T05:46:05.798Z,16.60
2018-05-15T05:47:05.961Z,16.70
2018-05-15T05:48:08.112Z,16.70
2018-05-15T05:49:10.763Z,16.80
2018-05-15T05:50:07.973Z,16.80
2018-05-15T05:51:06.365Z,16.90
2018-05-15T05:52:06.250Z,16.90
2018-05-15T05:53:05.568Z,17.00
2018-05-15T05:54:05.439Z,17.00
2018-05-15T05:55:05.996Z,17.00
2018-05-15T05:56:09.182Z,17.10
2018-05-15T05:57:09.004Z,17.20
2018-05-15T05:58:13.394Z,17.30
2018-05-15T05:59:11.120Z,17.30
2018-05-15T06:00:08.215Z,17.40
2018-05-15T06:01:05.789Z,17.40
2018-05-15T06:02:05.742Z,17.40
2018-05-15T06:03:05.672Z,17.50
2018-05-15T06:04:07.854Z,17.60
2018-05-15T06:05:05.317Z,17.60
2018-05-15T06:06:09.659Z,17.70
2018-05-15T06:07:10.530Z,17.70
2018-05-15T06:08:08.664Z,17.80
2018-05-15T06:09:06.292Z,17.80
2018-05-15T06:10:05.573Z,17.80
2018-05-15T06:11:05.776Z,17.80
2018-05-15T06:12:05.758Z,17.80
2018-05-15T06:13:05.860Z,17.90
2018-05-15T06:14:05.264Z,17.90
2018-05-15T06:15:05.334Z,17.90
2018-05-15T06:16:05.372Z,17.90
2018-05-15T06:17:08.024Z,17.80
2018-05-15T06:18:05.497Z,17.80
2018-05-15T06:19:05.421Z,17.70
2018-05-15T06:20:11.091Z,17.70
2018-05-15T06:21:11.020Z,17.70
2018-05-15T06:22:10.563Z,17.70
2018-05-15T06:23:06.285Z,17.70
2018-05-15T06:24:06.304Z,17.70
2018-05-15T06:25:06.040Z,17.70
2018-05-15T06:26:05.584Z,17.70
2018-05-15T06:27:05.761Z,17.80
2018-05-15T06:28:05.459Z,17.90
2018-05-15T06:29:05.451Z,18.00
2018-05-15T06:30:05.685Z,18.00
2018-05-15T06:31:06.458Z,18.10
2018-05-15T06:32:06.389Z,18.10
2018-05-15T06:33:05.355Z,18.10
2018-05-15T06:34:09.466Z,18.10
2018-05-15T06:35:05.426Z,18.10
2018-05-15T06:36:05.591Z,18.20
2018-05-15T06:37:10.405Z,18.20
2018-05-15T06:38:08.795Z,18.20
2018-05-15T06:39:08.364Z,18.20
2018-05-15T06:40:06.048Z,18.20
2018-05-15T06:41:05.843Z,18.20
2018-05-15T06:42:08.355Z,18.30
2018-05-15T06:43:08.432Z,18.30
2018-05-15T06:44:05.979Z,18.30
2018-05-15T06:45:05.287Z,18.30
2018-05-15T06:46:05.847Z,18.20
2018-05-15T06:47:05.371Z,18.20
2018-05-15T06:48:06.058Z,18.10
2018-05-15T06:49:05.391Z,18.00
2018-05-15T06:50:11.470Z,17.90
2018-05-15T06:51:08.746Z,16.20
2018-05-15T06:52:05.382Z,17.80
2018-05-15T06:53:05.390Z,17.80
2018-05-15T06:54:06.150Z,17.70
2018-05-15T06:55:05.479Z,17.60
2018-05-15T06:56:08.078Z,17.50
2018-05-15T06:57:05.782Z,17.50
2018-05-15T06:58:08.119Z,17.40
2018-05-15T06:59:05.691Z,17.40
2018-05-15T07:00:05.396Z,17.50
2018-05-15T07:01:07.873Z,17.50
2018-05-15T07:02:07.974Z,17.50
2018-05-15T07:03:05.386Z,17.50
2018-05-15T07:04:08.340Z,17.50
2018-05-15T07:05:08.538Z,17.50
2018-05-15T07:06:06.589Z,17.50
2018-05-15T07:07:06.004Z,17.50
2018-05-15T07:08:06.179Z,17.50
2018-05-15T07:09:10.702Z,17.60
2018-05-15T07:10:05.193Z,17.70
2018-05-15T07:11:05.515Z,17.80
2018-05-15T07:12:05.360Z,17.80
2018-05-15T07:13:10.547Z,18.00
2018-05-15T07:14:06.414Z,18.00
2018-05-15T07:15:09.107Z,18.10
2018-05-15T07:16:08.336Z,18.00
2018-05-15T07:17:26.293Z,18.00
2018-05-15T07:18:06.051Z,18.00
2018-05-15T07:19:06.075Z,18.00
2018-05-15T07:20:08.364Z,18.00
2018-05-15T07:21:05.904Z,17.90
2018-05-15T07:22:05.414Z,17.90
2018-05-15T07:23:10.461Z,17.90
2018-05-15T07:24:08.552Z,17.90
2018-05-15T07:25:06.569Z,17.90
2018-05-15T07:26:05.898Z,18.00
2018-05-15T07:27:10.667Z,18.00
2018-05-15T07:28:05.303Z,18.00
2018-05-15T07:29:05.509Z,18.00
2018-05-15T07:30:05.300Z,18.00
2018-05-15T07:31:05.339Z,18.00
2018-05-15T07:32:08.977Z,17.80
2018-05-15T07:33:10.814Z,17.80
2018-05-15T07:34:10.451Z,17.80
2018-05-15T07:35:06.003Z,17.80
2018-05-15T07:36:06.754Z,17.80
2018-05-15T07:37:05.585Z,17.80
2018-05-15T07:38:05.534Z,17.80
2018-05-15T07:39:13.579Z,17.70
2018-05-15T07:40:09.064Z,17.70
2018-05-15T07:41:05.681Z,17.70
2018-05-15T07:42:11.454Z,17.70
2018-05-15T07:43:10.406Z,17.70
2018-05-15T07:44:12.386Z,17.70
2018-05-15T07:45:11.229Z,17.60
2018-05-15T07:46:05.894Z,17.60
2018-05-15T07:47:05.166Z,17.60
2018-05-15T07:48:05.727Z,17.50
2018-05-15T07:49:07.810Z,17.50
2018-05-15T07:50:05.456Z,17.50
2018-05-15T07:51:08.860Z,17.40
2018-05-15T07:52:05.658Z,17.30
2018-05-15T07:53:05.741Z,17.30
2018-05-15T07:54:06.223Z,17.30
2018-05-15T07:55:05.901Z,17.30
2018-05-15T07:56:10.708Z,17.30
2018-05-15T07:57:05.241Z,17.30
2018-05-15T07:58:06.043Z,17.30
2018-05-15T07:59:09.077Z,17.30
2018-05-15T08:00:10.757Z,17.30
2018-05-15T08:01:05.318Z,17.20
2018-05-15T08:02:08.134Z,17.20
2018-05-15T08:03:20.926Z,17.20
2018-05-15T08:04:08.929Z,17.30
2018-05-15T08:05:10.787Z,17.20
2018-05-15T08:06:08.542Z,17.30
2018-05-15T08:07:06.114Z,17.20
2018-05-15T08:08:05.313Z,17.30
2018-05-15T08:09:06.564Z,17.20
2018-05-15T08:10:05.902Z,17.30
2018-05-15T08:11:08.375Z,17.20
2018-05-15T08:12:05.919Z,17.20
2018-05-15T08:13:10.750Z,17.30
2018-05-15T08:14:05.764Z,17.30
2018-05-15T08:15:05.149Z,17.30
2018-05-15T08:16:10.251Z,17.30
2018-05-15T08:17:05.846Z,17.30
2018-05-15T08:18:08.558Z,17.30
2018-05-15T08:19:05.463Z,17.30
2018-05-15T08:20:08.737Z,17.40
2018-05-15T08:21:06.064Z,17.40
2018-05-15T08:22:13.078Z,17.40
2018-05-15T08:23:06.169Z,17.40
2018-05-15T08:24:05.675Z,17.50
2018-05-15T08:25:05.988Z,17.50
2018-05-15T08:26:06.004Z,17.50
2018-05-15T08:27:05.492Z,17.60
2018-05-15T08:28:05.462Z,17.60
2018-05-15T08:29:10.407Z,17.60
2018-05-15T08:30:06.032Z,17.60
2018-05-15T08:31:05.791Z,17.60
2018-05-15T08:32:05.345Z,17.60
2018-05-15T08:33:05.461Z,17.60
2018-05-15T08:34:05.308Z,17.70
2018-05-15T08:35:06.357Z,17.70
2018-05-15T08:36:05.592Z,17.70
2018-05-15T08:37:05.824Z,17.70
2018-05-15T08:38:09.007Z,17.70
2018-05-15T08:39:05.652Z,17.70
2018-05-15T08:40:05.865Z,17.70
2018-05-15T08:41:10.709Z,17.70
2018-05-15T08:42:05.262Z,17.80
2018-05-15T08:43:06.238Z,17.80
2018-05-15T08:44:07.969Z,18.00
2018-05-15T08:45:07.975Z,18.00
2018-05-15T08:46:05.506Z,18.00
2018-05-15T08:47:05.502Z,18.10
2018-05-15T08:48:10.641Z,18.10
2018-05-15T08:49:06.196Z,18.20
2018-05-15T08:50:06.216Z,18.20
2018-05-15T08:51:05.976Z,18.20
2018-05-15T08:52:11.174Z,18.20
2018-05-15T08:53:06.177Z,18.20
2018-05-15T08:54:06.058Z,18.20
2018-05-15T08:55:08.092Z,18.20
2018-05-15T08:56:05.601Z,18.20
2018-05-15T08:57:06.065Z,18.30
2018-05-15T08:58:05.943Z,18.30
2018-05-15T08:59:06.237Z,18.40
2018-05-15T09:00:08.338Z,18.50
2018-05-15T09:01:06.030Z,18.50
2018-05-15T09:02:08.348Z,18.60
2018-05-15T09:03:11.069Z,18.60
2018-05-15T09:04:05.656Z,18.60
2018-05-15T09:05:05.737Z,18.70
2018-05-15T09:06:06.066Z,18.70
2018-05-15T09:07:05.879Z,18.80
2018-05-15T09:08:08.475Z,18.90
2018-05-15T09:09:06.053Z,18.80
2018-05-15T09:10:05.978Z,18.90
2018-05-15T09:11:08.900Z,18.90
2018-05-15T09:12:08.453Z,18.90
2018-05-15T09:13:11.102Z,18.80
2018-05-15T09:14:10.559Z,18.80
2018-05-15T09:15:06.499Z,18.80
2018-05-15T09:16:05.976Z,18.80
2018-05-15T09:17:10.562Z,18.70
2018-05-15T09:18:06.295Z,18.70
2018-05-15T09:19:05.989Z,18.70
2018-05-15T09:20:08.427Z,18.60
2018-05-15T09:21:08.454Z,18.50
2018-05-15T09:22:06.079Z,18.50
2018-05-15T09:23:06.656Z,18.50
2018-05-15T09:24:05.727Z,18.50
2018-05-15T09:25:08.174Z,18.40
2018-05-15T09:26:08.475Z,18.30
2018-05-15T09:27:11.049Z,18.30
2018-05-15T09:28:08.225Z,18.30
2018-05-15T09:29:06.070Z,18.30
2018-05-15T09:30:07.924Z,18.30
2018-05-15T09:31:10.466Z,18.30
2018-05-15T09:32:08.463Z,18.30
2018-05-15T09:33:10.961Z,18.30
2018-05-15T09:34:10.584Z,18.20
2018-05-15T09:35:09.344Z,18.20
2018-05-15T09:36:05.944Z,18.20
2018-05-15T09:37:08.264Z,18.20
2018-05-15T09:38:05.889Z,18.20
2018-05-15T09:39:10.932Z,18.20
2018-05-15T09:40:06.154Z,18.20
2018-05-15T09:41:08.366Z,18.30
2018-05-15T09:42:05.579Z,18.30
2018-05-15T09:43:05.505Z,18.30
2018-05-15T09:44:10.727Z,18.30
2018-05-15T09:45:05.904Z,18.30
2018-05-15T09:46:05.964Z,18.40
2018-05-15T09:47:05.897Z,18.40
2018-05-15T09:48:05.559Z,18.50
2018-05-15T09:49:08.483Z,18.60
2018-05-15T09:50:06.521Z,18.50
2018-05-15T09:51:05.443Z,18.60
2018-05-15T09:52:06.421Z,18.70
2018-05-15T09:53:08.859Z,18.80
2018-05-15T09:54:05.984Z,18.80
2018-05-15T09:55:11.329Z,19.00
2018-05-15T09:56:05.982Z,19.00
2018-05-15T09:57:05.465Z,19.20
2018-05-15T09:58:05.458Z,19.30
2018-05-15T09:59:06.039Z,19.50
2018-05-15T10:00:08.463Z,19.70
2018-05-15T10:01:06.454Z,19.70
2018-05-15T10:02:09.093Z,19.80
2018-05-15T10:03:10.800Z,19.90
2018-05-15T10:04:06.053Z,19.90
2018-05-15T10:05:08.635Z,20.10
2018-05-15T10:06:05.261Z,20.10
2018-05-15T10:07:05.976Z,20.10
2018-05-15T10:08:08.417Z,20.20
2018-05-15T10:09:09.225Z,20.30
2018-05-15T10:10:05.909Z,20.30
2018-05-15T10:11:05.780Z,20.30
2018-05-15T10:12:10.518Z,20.40
2018-05-15T10:13:08.640Z,20.30
2018-05-15T10:14:11.244Z,20.20
2018-05-15T10:15:06.279Z,20.20
2018-05-15T10:16:07.965Z,20.20
2018-05-15T10:17:08.989Z,20.10
2018-05-15T10:18:05.520Z,20.10
2018-05-15T10:19:05.759Z,20.20
2018-05-15T10:20:05.724Z,20.10
2018-05-15T10:21:05.831Z,20.10
2018-05-15T10:22:10.967Z,20.00
2018-05-15T10:23:10.701Z,20.00
2018-05-15T10:24:10.313Z,19.90
2018-05-15T10:25:06.143Z,19.90
2018-05-15T10:26:05.626Z,19.90
2018-05-15T10:27:05.748Z,19.90
2018-05-15T10:28:09.711Z,19.90
2018-05-15T10:29:05.440Z,19.80
2018-05-15T10:30:07.159Z,19.80
2018-05-15T10:31:05.483Z,19.70
2018-05-15T10:32:05.800Z,19.70
2018-05-15T10:33:05.942Z,19.60
2018-05-15T10:34:06.076Z,19.60
2018-05-15T10:35:05.522Z,19.70
2018-05-15T10:36:08.520Z,19.90
2018-05-15T10:37:08.704Z,20.00
2018-05-15T10:38:10.324Z,19.90
2018-05-15T10:39:05.888Z,20.00
2018-05-15T10:40:10.621Z,20.10
2018-05-15T10:41:11.161Z,20.20
2018-05-15T10:42:05.864Z,20.20
2018-05-15T10:43:10.892Z,20.40
2018-05-15T10:44:06.235Z,20.40
2018-05-15T10:45:11.080Z,20.60
2018-05-15T10:46:10.768Z,20.60
2018-05-15T10:47:05.469Z,20.60
2018-05-15T10:48:09.530Z,20.50
2018-05-15T10:49:06.395Z,20.40
2018-05-15T10:50:06.021Z,20.40
2018-05-15T10:51:08.628Z,20.30
2018-05-15T10:52:05.956Z,20.30
2018-05-15T10:53:06.403Z,20.30
2018-05-15T10:54:06.464Z,20.30
2018-05-15T10:55:08.305Z,20.30
2018-05-15T10:56:11.033Z,20.30
2018-05-15T10:57:10.673Z,20.20
2018-05-15T10:58:05.411Z,20.20
2018-05-15T10:59:05.565Z,20.20
2018-05-15T11:00:05.866Z,20.20
2018-05-15T11:01:05.465Z,20.20
2018-05-15T11:02:09.898Z,20.20
2018-05-15T11:03:06.278Z,20.20
2018-05-15T11:04:05.416Z,20.30
2018-05-15T11:05:05.917Z,20.40
2018-05-15T11:06:05.620Z,20.40
2018-05-15T11:07:05.646Z,20.60
2018-05-15T11:08:05.738Z,20.60
2018-05-15T11:09:05.993Z,20.70
2018-05-15T11:10:06.076Z,20.80
2018-05-15T11:11:06.117Z,20.80
2018-05-15T11:12:16.364Z,20.80
2018-05-15T11:13:05.832Z,20.80
2018-05-15T11:14:06.253Z,20.70
2018-05-15T11:15:05.864Z,20.70
2018-05-15T11:16:11.971Z,20.50
2018-05-15T11:17:05.935Z,20.50
2018-05-15T11:18:06.214Z,20.50
2018-05-15T11:19:08.188Z,20.30
2018-05-15T11:20:05.504Z,20.30
2018-05-15T11:21:05.390Z,20.30
2018-05-15T11:22:06.248Z,20.20
2018-05-15T11:23:11.289Z,20.00
2018-05-15T11:24:09.260Z,20.00
2018-05-15T11:25:10.909Z,19.90
2018-05-15T11:26:05.682Z,19.90
2018-05-15T11:27:10.973Z,19.90
2018-05-15T11:28:05.563Z,19.90
2018-05-15T11:29:13.757Z,19.80
2018-05-15T11:30:05.174Z,19.80
2018-05-15T11:31:06.094Z,19.80
2018-05-15T11:32:06.093Z,19.80
2018-05-15T11:33:05.881Z,19.80
2018-05-15T11:34:08.379Z,19.80
2018-05-15T11:35:06.043Z,19.80
2018-05-15T11:36:05.745Z,19.70
2018-05-15T11:37:08.721Z,19.70
2018-05-15T11:38:08.385Z,19.70
2018-05-15T11:39:08.600Z,19.60
2018-05-15T11:40:05.277Z,19.60
2018-05-15T11:41:10.749Z,19.60
2018-05-15T11:42:05.827Z,19.60
2018-05-15T11:43:06.251Z,19.60
2018-05-15T11:44:05.582Z,19.50
2018-05-15T11:45:06.088Z,19.60
2018-05-15T11:46:05.837Z,19.50
2018-05-15T11:47:08.993Z,19.40
2018-05-15T11:48:06.607Z,19.50
2018-05-15T11:49:07.147Z,19.40
2018-05-15T11:50:06.777Z,19.40
2018-05-15T11:51:06.117Z,19.40
2018-05-15T11:52:06.757Z,19.20
2018-05-15T11:53:07.434Z,19.20
2018-05-15T11:54:08.165Z,19.00
2018-05-15T11:55:10.947Z,18.80
2018-05-15T11:56:05.454Z,18.80
2018-05-15T11:57:06.006Z,18.70
2018-05-15T11:58:05.579Z,18.50
2018-05-15T11:59:05.582Z,18.40
2018-05-15T12:00:05.974Z,18.20
2018-05-15T12:01:16.177Z,18.00
2018-05-15T12:02:09.255Z,18.00
2018-05-15T12:03:08.634Z,18.10
2018-05-15T12:04:07.788Z,18.20
2018-05-15T12:05:05.440Z,18.10
2018-05-15T12:06:06.208Z,18.20
2018-05-15T12:07:05.482Z,18.40
2018-05-15T12:08:08.649Z,18.60
2018-05-15T12:09:10.549Z,18.70
2018-05-15T12:10:05.786Z,18.70
2018-05-15T12:11:05.456Z,18.80
2018-05-15T12:12:06.005Z,18.90
2018-05-15T12:13:09.372Z,19.20
2018-05-15T12:14:05.981Z,19.20
2018-05-15T12:15:06.011Z,19.30
2018-05-15T12:16:05.265Z,19.40
2018-05-15T12:17:05.541Z,19.40
2018-05-15T12:18:06.325Z,19.50
2018-05-15T12:19:08.606Z,19.50
2018-05-15T12:20:05.382Z,19.50
2018-05-15T12:21:06.186Z,19.60
2018-05-15T12:22:05.773Z,19.60
2018-05-15T12:23:10.554Z,19.60
2018-05-15T12:24:05.998Z,19.60
2018-05-15T12:25:05.323Z,19.60
2018-05-15T12:26:06.126Z,19.60
2018-05-15T12:27:05.801Z,19.60
2018-05-15T12:28:08.688Z,19.50
2018-05-15T12:29:05.627Z,19.50
2018-05-15T12:30:05.866Z,19.50
2018-05-15T12:31:08.283Z,19.40
2018-05-15T12:32:05.942Z,19.40
2018-05-15T12:33:06.133Z,19.30
2018-05-15T12:34:05.954Z,19.30
2018-05-15T12:35:05.634Z,19.30
2018-05-15T12:36:05.453Z,19.30
2018-05-15T12:37:07.743Z,19.30
2018-05-15T12:38:05.976Z,19.30
2018-05-15T12:39:05.781Z,19.20
2018-05-15T12:40:08.057Z,19.20
2018-05-15T12:41:10.299Z,19.30
2018-05-15T12:42:06.016Z,19.30
2018-05-15T12:43:06.208Z,19.40
2018-05-15T12:44:06.116Z,19.40
2018-05-15T12:45:06.310Z,19.50
2018-05-15T12:46:06.618Z,19.50
2018-05-15T12:47:08.635Z,19.70
2018-05-15T12:48:10.399Z,19.70
2018-05-15T12:49:05.622Z,19.70
2018-05-15T12:50:05.946Z,19.80
2018-05-15T12:51:11.137Z,19.90
2018-05-15T12:52:06.116Z,19.90